sensor_id;sensor_type;location;lat;lon;timestamp;temperature;humidity
9103;DHT22;4587;51.434;6.788;2023-07-13T00:00:38;18.90;99.90
9103;DHT22;4587;51.434;6.788;2023-07-13T00:03:04;18.90;99.90
9103;DHT22;4587;51.434;6.788;2023-07-13T00:05:30;18.80;99.90
9103;DHT22;4587;51.434;6.788;2023-07-13T00:07:55;18.80;99.90
9103;DHT22;4587;51.434;6.788;2023-07-13T00:10:22;18.80;99.90
9103;DHT22;4587;51.434;6.788;2023-07-13T00:12:48;18.80;99.90
9103;DHT22;4587;51.434;6.788;2023-07-13T00:15:17;18.70;99.90
9103;DHT22;4587;51.434;6.788;2023-07-13T00:17:52;18.80;99.90
9103;DHT22;4587;51.434;6.788;2023-07-13T00:20:19;18.70;99.90
9103;DHT22;4587;51.434;6.788;2023-07-13T00:22:47;18.70;99.90
9103;DHT22;4587;51.434;6.788;2023-07-13T00:25:14;18.90;99.90
9103;DHT22;4587;51.434;6.788;2023-07-13T00:27:41;18.70;99.90
9103;DHT22;4587;51.434;6.788;2023-07-13T00:40:14;18.10;99.90
9103;DHT22;4587;51.434;6.788;2023-07-13T00:42:40;18.60;99.90
9103;DHT22;4587;51.434;6.788;2023-07-13T00:47:52;18.60;99.90
9103;DHT22;4587;51.434;6.788;2023-07-13T00:50:19;18.50;99.90
9103;DHT22;4587;51.434;6.788;2023-07-13T00:52:48;18.50;99.90
9103;DHT22;4587;51.434;6.788;2023-07-13T00:55:15;18.50;99.90
9103;DHT22;4587;51.434;6.788;2023-07-13T00:57:42;18.50;99.90
9103;DHT22;4587;51.434;6.788;2023-07-13T01:00:09;18.50;99.90
9103;DHT22;4587;51.434;6.788;2023-07-13T01:02:40;18.50;99.90
9103;DHT22;4587;51.434;6.788;2023-07-13T01:05:11;18.70;99.90
9103;DHT22;4587;51.434;6.788;2023-07-13T01:07:38;18.50;99.90
9103;DHT22;4587;51.434;6.788;2023-07-13T01:10:04;18.50;99.90
9103;DHT22;4587;51.434;6.788;2023-07-13T01:12:29;18.50;99.90
9103;DHT22;4587;51.434;6.788;2023-07-13T01:15:00;18.60;99.90
9103;DHT22;4587;51.434;6.788;2023-07-13T01:17:28;18.40;99.90
9103;DHT22;4587;51.434;6.788;2023-07-13T01:19:54;18.40;99.90
9103;DHT22;4587;51.434;6.788;2023-07-13T01:22:20;18.30;99.90
9103;DHT22;4587;51.434;6.788;2023-07-13T01:24:51;18.70;99.90
9103;DHT22;4587;51.434;6.788;2023-07-13T01:27:21;18.00;99.90
9103;DHT22;4587;51.434;6.788;2023-07-13T01:29:47;18.30;99.90
9103;DHT22;4587;51.434;6.788;2023-07-13T01:32:21;18.30;99.90
9103;DHT22;4587;51.434;6.788;2023-07-13T01:34:50;18.30;99.90
9103;DHT22;4587;51.434;6.788;2023-07-13T01:37:16;18.30;99.90
9103;DHT22;4587;51.434;6.788;2023-07-13T01:39:42;18.30;99.90
9103;DHT22;4587;51.434;6.788;2023-07-13T01:42:08;18.20;99.90
9103;DHT22;4587;51.434;6.788;2023-07-13T01:44:34;18.20;99.90
9103;DHT22;4587;51.434;6.788;2023-07-13T01:47:00;18.10;99.90
9103;DHT22;4587;51.434;6.788;2023-07-13T01:49:26;18.10;99.90
9103;DHT22;4587;51.434;6.788;2023-07-13T01:51:51;18.10;99.90
9103;DHT22;4587;51.434;6.788;2023-07-13T01:54:17;18.10;99.90
9103;DHT22;4587;51.434;6.788;2023-07-13T01:56:42;18.00;99.90
9103;DHT22;4587;51.434;6.788;2023-07-13T01:59:08;18.00;99.90
9103;DHT22;4587;51.434;6.788;2023-07-13T02:01:34;17.90;99.90
9103;DHT22;4587;51.434;6.788;2023-07-13T02:04:00;17.90;99.90
9103;DHT22;4587;51.434;6.788;2023-07-13T02:06:26;17.90;99.90
9103;DHT22;4587;51.434;6.788;2023-07-13T02:08:51;17.90;99.90
9103;DHT22;4587;51.434;6.788;2023-07-13T02:11:17;17.90;99.90
9103;DHT22;4587;51.434;6.788;2023-07-13T02:13:43;17.90;99.90
9103;DHT22;4587;51.434;6.788;2023-07-13T02:16:08;17.90;99.90
9103;DHT22;4587;51.434;6.788;2023-07-13T02:18:34;17.80;99.90
9103;DHT22;4587;51.434;6.788;2023-07-13T02:20:59;17.80;99.90
9103;DHT22;4587;51.434;6.788;2023-07-13T02:23:25;17.80;99.90
9103;DHT22;4587;51.434;6.788;2023-07-13T02:25:58;17.70;99.90
9103;DHT22;4587;51.434;6.788;2023-07-13T02:28:24;17.80;99.90
9103;DHT22;4587;51.434;6.788;2023-07-13T02:30:49;17.90;99.90
9103;DHT22;4587;51.434;6.788;2023-07-13T02:33:15;17.80;99.90
9103;DHT22;4587;51.434;6.788;2023-07-13T02:35:41;17.70;99.90
9103;DHT22;4587;51.434;6.788;2023-07-13T02:38:06;17.60;99.90
9103;DHT22;4587;51.434;6.788;2023-07-13T02:40:32;17.70;99.90
9103;DHT22;4587;51.434;6.788;2023-07-13T02:43:01;17.60;99.90
9103;DHT22;4587;51.434;6.788;2023-07-13T02:45:27;17.50;99.90
9103;DHT22;4587;51.434;6.788;2023-07-13T02:47:54;17.50;99.90
9103;DHT22;4587;51.434;6.788;2023-07-13T02:50:20;17.50;99.90
9103;DHT22;4587;51.434;6.788;2023-07-13T02:52:45;17.50;99.90
9103;DHT22;4587;51.434;6.788;2023-07-13T02:55:11;17.50;99.90
9103;DHT22;4587;51.434;6.788;2023-07-13T02:57:36;17.40;99.90
9103;DHT22;4587;51.434;6.788;2023-07-13T03:00:03;17.50;99.90
9103;DHT22;4587;51.434;6.788;2023-07-13T03:02:33;17.50;99.90
9103;DHT22;4587;51.434;6.788;2023-07-13T03:04:59;17.50;99.90
9103;DHT22;4587;51.434;6.788;2023-07-13T03:07:25;17.40;99.90
9103;DHT22;4587;51.434;6.788;2023-07-13T03:09:55;17.50;99.90
9103;DHT22;4587;51.434;6.788;2023-07-13T03:12:21;17.40;99.90
9103;DHT22;4587;51.434;6.788;2023-07-13T03:14:47;17.40;99.90
9103;DHT22;4587;51.434;6.788;2023-07-13T03:17:15;17.40;99.90
9103;DHT22;4587;51.434;6.788;2023-07-13T03:19:41;17.30;99.90
9103;DHT22;4587;51.434;6.788;2023-07-13T03:22:06;17.20;99.90
9103;DHT22;4587;51.434;6.788;2023-07-13T03:24:33;17.20;99.90
9103;DHT22;4587;51.434;6.788;2023-07-13T03:27:00;17.20;99.90
9103;DHT22;4587;51.434;6.788;2023-07-13T03:29:26;17.20;99.90
9103;DHT22;4587;51.434;6.788;2023-07-13T03:31:52;17.30;99.90
9103;DHT22;4587;51.434;6.788;2023-07-13T03:34:17;17.30;99.90
9103;DHT22;4587;51.434;6.788;2023-07-13T03:36:43;17.50;99.90
9103;DHT22;4587;51.434;6.788;2023-07-13T03:39:09;17.40;99.90
9103;DHT22;4587;51.434;6.788;2023-07-13T03:41:35;17.30;99.90
9103;DHT22;4587;51.434;6.788;2023-07-13T03:44:01;17.40;99.90
9103;DHT22;4587;51.434;6.788;2023-07-13T03:46:26;17.40;99.90
9103;DHT22;4587;51.434;6.788;2023-07-13T03:48:52;17.30;99.90
9103;DHT22;4587;51.434;6.788;2023-07-13T03:51:18;17.30;99.90
9103;DHT22;4587;51.434;6.788;2023-07-13T03:53:45;17.30;99.90
9103;DHT22;4587;51.434;6.788;2023-07-13T03:56:12;17.40;99.90
9103;DHT22;4587;51.434;6.788;2023-07-13T03:58:41;17.40;99.90
9103;DHT22;4587;51.434;6.788;2023-07-13T04:01:08;17.40;99.90
9103;DHT22;4587;51.434;6.788;2023-07-13T04:03:35;17.40;99.90
9103;DHT22;4587;51.434;6.788;2023-07-13T04:06:02;17.50;99.90
9103;DHT22;4587;51.434;6.788;2023-07-13T04:08:30;17.50;99.90
9103;DHT22;4587;51.434;6.788;2023-07-13T04:10:56;17.50;99.90
9103;DHT22;4587;51.434;6.788;2023-07-13T04:13:22;17.60;99.90
9103;DHT22;4587;51.434;6.788;2023-07-13T04:15:48;17.60;99.90
9103;DHT22;4587;51.434;6.788;2023-07-13T04:18:14;17.60;99.90
9103;DHT22;4587;51.434;6.788;2023-07-13T04:20:40;17.60;99.90
9103;DHT22;4587;51.434;6.788;2023-07-13T04:23:05;17.70;99.90
9103;DHT22;4587;51.434;6.788;2023-07-13T04:25:31;17.80;99.90
9103;DHT22;4587;51.434;6.788;2023-07-13T04:27:56;17.80;99.90
9103;DHT22;4587;51.434;6.788;2023-07-13T04:30:22;17.80;99.90
9103;DHT22;4587;51.434;6.788;2023-07-13T04:32:50;17.70;99.90
9103;DHT22;4587;51.434;6.788;2023-07-13T04:35:15;17.70;99.90
9103;DHT22;4587;51.434;6.788;2023-07-13T04:37:41;17.70;99.90
9103;DHT22;4587;51.434;6.788;2023-07-13T04:40:07;17.80;99.90
9103;DHT22;4587;51.434;6.788;2023-07-13T04:42:37;17.80;99.90
9103;DHT22;4587;51.434;6.788;2023-07-13T04:45:03;17.80;99.90
9103;DHT22;4587;51.434;6.788;2023-07-13T04:47:30;17.80;99.90
9103;DHT22;4587;51.434;6.788;2023-07-13T04:49:56;17.90;99.90
9103;DHT22;4587;51.434;6.788;2023-07-13T04:52:23;17.90;99.90
9103;DHT22;4587;51.434;6.788;2023-07-13T04:54:48;17.90;99.90
9103;DHT22;4587;51.434;6.788;2023-07-13T04:57:14;17.80;99.90
9103;DHT22;4587;51.434;6.788;2023-07-13T04:59:40;17.90;99.90
9103;DHT22;4587;51.434;6.788;2023-07-13T05:02:05;18.00;99.90
9103;DHT22;4587;51.434;6.788;2023-07-13T05:04:31;18.00;99.90
9103;DHT22;4587;51.434;6.788;2023-07-13T05:06:57;18.00;99.90
9103;DHT22;4587;51.434;6.788;2023-07-13T05:09:22;18.10;99.90
9103;DHT22;4587;51.434;6.788;2023-07-13T05:11:48;18.10;99.90
9103;DHT22;4587;51.434;6.788;2023-07-13T05:14:13;18.20;99.90
9103;DHT22;4587;51.434;6.788;2023-07-13T05:16:40;18.20;99.90
9103;DHT22;4587;51.434;6.788;2023-07-13T05:19:06;18.30;99.90
9103;DHT22;4587;51.434;6.788;2023-07-13T05:21:31;18.40;99.90
9103;DHT22;4587;51.434;6.788;2023-07-13T05:23:57;18.50;99.90
9103;DHT22;4587;51.434;6.788;2023-07-13T05:26:22;18.50;99.90
9103;DHT22;4587;51.434;6.788;2023-07-13T05:28:48;18.50;99.90
9103;DHT22;4587;51.434;6.788;2023-07-13T05:31:16;18.50;99.90
9103;DHT22;4587;51.434;6.788;2023-07-13T05:33:42;18.50;99.90
9103;DHT22;4587;51.434;6.788;2023-07-13T05:36:07;18.60;99.90
9103;DHT22;4587;51.434;6.788;2023-07-13T05:38:33;18.70;99.90
9103;DHT22;4587;51.434;6.788;2023-07-13T05:40:59;18.70;99.90
9103;DHT22;4587;51.434;6.788;2023-07-13T05:43:25;18.60;99.90
9103;DHT22;4587;51.434;6.788;2023-07-13T05:45:53;18.60;99.90
9103;DHT22;4587;51.434;6.788;2023-07-13T05:48:18;18.50;99.90
9103;DHT22;4587;51.434;6.788;2023-07-13T05:50:44;18.10;99.90
9103;DHT22;4587;51.434;6.788;2023-07-13T05:53:10;18.80;99.90
9103;DHT22;4587;51.434;6.788;2023-07-13T05:55:35;18.80;99.90
9103;DHT22;4587;51.434;6.788;2023-07-13T05:58:01;18.90;99.90
9103;DHT22;4587;51.434;6.788;2023-07-13T06:00:27;19.10;99.90
9103;DHT22;4587;51.434;6.788;2023-07-13T06:02:52;19.20;99.90
9103;DHT22;4587;51.434;6.788;2023-07-13T06:05:18;19.30;99.90
9103;DHT22;4587;51.434;6.788;2023-07-13T06:07:44;19.50;99.90
9103;DHT22;4587;51.434;6.788;2023-07-13T06:10:10;19.50;99.90
9103;DHT22;4587;51.434;6.788;2023-07-13T06:12:36;19.70;99.90
9103;DHT22;4587;51.434;6.788;2023-07-13T06:15:01;19.80;99.90
9103;DHT22;4587;51.434;6.788;2023-07-13T06:17:27;19.80;99.90
9103;DHT22;4587;51.434;6.788;2023-07-13T06:19:53;19.90;99.90
9103;DHT22;4587;51.434;6.788;2023-07-13T06:22:18;20.10;99.90
9103;DHT22;4587;51.434;6.788;2023-07-13T06:24:44;20.10;99.90
9103;DHT22;4587;51.434;6.788;2023-07-13T06:27:09;20.10;99.90
9103;DHT22;4587;51.434;6.788;2023-07-13T06:29:35;20.10;99.90
9103;DHT22;4587;51.434;6.788;2023-07-13T06:32:01;20.00;99.90
9103;DHT22;4587;51.434;6.788;2023-07-13T06:34:27;20.10;99.90
9103;DHT22;4587;51.434;6.788;2023-07-13T06:36:52;20.30;99.90
9103;DHT22;4587;51.434;6.788;2023-07-13T06:39:18;20.60;99.90
9103;DHT22;4587;51.434;6.788;2023-07-13T06:41:43;21.30;99.90
9103;DHT22;4587;51.434;6.788;2023-07-13T06:44:09;22.00;99.90
9103;DHT22;4587;51.434;6.788;2023-07-13T06:46:34;23.00;99.90
9103;DHT22;4587;51.434;6.788;2023-07-13T06:49:00;23.80;99.90
9103;DHT22;4587;51.434;6.788;2023-07-13T06:51:26;24.60;99.90
9103;DHT22;4587;51.434;6.788;2023-07-13T06:53:52;24.60;99.90
9103;DHT22;4587;51.434;6.788;2023-07-13T06:56:17;24.20;99.90
9103;DHT22;4587;51.434;6.788;2023-07-13T06:58:43;23.80;99.90
9103;DHT22;4587;51.434;6.788;2023-07-13T07:01:09;23.20;99.90
9103;DHT22;4587;51.434;6.788;2023-07-13T07:03:34;22.40;99.90
9103;DHT22;4587;51.434;6.788;2023-07-13T07:06:14;22.40;99.90
9103;DHT22;4587;51.434;6.788;2023-07-13T07:08:40;21.50;99.90
9103;DHT22;4587;51.434;6.788;2023-07-13T07:11:09;21.80;99.90
9103;DHT22;4587;51.434;6.788;2023-07-13T07:16:01;20.80;99.90
9103;DHT22;4587;51.434;6.788;2023-07-13T07:18:26;21.20;99.90
9103;DHT22;4587;51.434;6.788;2023-07-13T07:20:52;21.00;99.90
9103;DHT22;4587;51.434;6.788;2023-07-13T07:23:18;20.90;99.90
9103;DHT22;4587;51.434;6.788;2023-07-13T07:25:44;20.80;99.90
9103;DHT22;4587;51.434;6.788;2023-07-13T07:28:10;20.90;99.90
9103;DHT22;4587;51.434;6.788;2023-07-13T07:30:36;20.90;99.90
9103;DHT22;4587;51.434;6.788;2023-07-13T07:33:01;21.20;99.90
9103;DHT22;4587;51.434;6.788;2023-07-13T07:35:27;21.10;99.90
9103;DHT22;4587;51.434;6.788;2023-07-13T07:37:52;21.20;99.90
9103;DHT22;4587;51.434;6.788;2023-07-13T07:40:19;21.30;99.90
9103;DHT22;4587;51.434;6.788;2023-07-13T07:42:44;21.00;99.90
9103;DHT22;4587;51.434;6.788;2023-07-13T07:45:10;21.50;99.90
9103;DHT22;4587;51.434;6.788;2023-07-13T07:47:37;21.50;99.90
9103;DHT22;4587;51.434;6.788;2023-07-13T07:50:02;21.50;99.90
9103;DHT22;4587;51.434;6.788;2023-07-13T07:52:30;21.50;99.90
9103;DHT22;4587;51.434;6.788;2023-07-13T07:54:55;21.90;99.90
9103;DHT22;4587;51.434;6.788;2023-07-13T07:57:21;22.90;99.90
9103;DHT22;4587;51.434;6.788;2023-07-13T07:59:47;23.20;99.90
9103;DHT22;4587;51.434;6.788;2023-07-13T08:02:13;23.20;99.90
9103;DHT22;4587;51.434;6.788;2023-07-13T08:04:39;23.00;99.90
9103;DHT22;4587;51.434;6.788;2023-07-13T08:07:05;22.70;99.90
9103;DHT22;4587;51.434;6.788;2023-07-13T08:09:30;22.60;99.90
9103;DHT22;4587;51.434;6.788;2023-07-13T08:11:56;22.80;99.90
9103;DHT22;4587;51.434;6.788;2023-07-13T08:14:22;22.80;99.90
9103;DHT22;4587;51.434;6.788;2023-07-13T08:16:47;22.80;99.90
9103;DHT22;4587;51.434;6.788;2023-07-13T08:19:13;22.80;99.90
9103;DHT22;4587;51.434;6.788;2023-07-13T08:21:38;22.80;99.90
9103;DHT22;4587;51.434;6.788;2023-07-13T08:24:04;22.90;99.90
9103;DHT22;4587;51.434;6.788;2023-07-13T08:26:29;22.90;99.90
9103;DHT22;4587;51.434;6.788;2023-07-13T08:28:55;22.90;99.90
9103;DHT22;4587;51.434;6.788;2023-07-13T08:31:21;23.10;99.90
9103;DHT22;4587;51.434;6.788;2023-07-13T08:33:46;23.30;99.90
9103;DHT22;4587;51.434;6.788;2023-07-13T08:36:12;23.40;99.90
9103;DHT22;4587;51.434;6.788;2023-07-13T08:38:38;23.40;99.90
9103;DHT22;4587;51.434;6.788;2023-07-13T08:41:12;23.30;99.90
9103;DHT22;4587;51.434;6.788;2023-07-13T08:43:38;23.20;99.90
9103;DHT22;4587;51.434;6.788;2023-07-13T08:48:59;23.10;99.90
9103;DHT22;4587;51.434;6.788;2023-07-13T08:51:45;23.00;99.90
9103;DHT22;4587;51.434;6.788;2023-07-13T08:56:45;22.80;99.90
9103;DHT22;4587;51.434;6.788;2023-07-13T08:59:15;22.70;99.90
9103;DHT22;4587;51.434;6.788;2023-07-13T09:02:14;22.70;99.90
9103;DHT22;4587;51.434;6.788;2023-07-13T09:04:47;22.70;99.90
9103;DHT22;4587;51.434;6.788;2023-07-13T09:07:29;22.80;99.90
9103;DHT22;4587;51.434;6.788;2023-07-13T09:15:31;22.90;99.90
9103;DHT22;4587;51.434;6.788;2023-07-13T09:18:02;22.80;99.90
9103;DHT22;4587;51.434;6.788;2023-07-13T09:20:33;22.80;99.90
9103;DHT22;4587;51.434;6.788;2023-07-13T09:23:01;23.00;99.90
9103;DHT22;4587;51.434;6.788;2023-07-13T09:25:36;23.00;99.90
9103;DHT22;4587;51.434;6.788;2023-07-13T09:28:18;23.20;99.90
9103;DHT22;4587;51.434;6.788;2023-07-13T09:33:28;23.60;99.90
9103;DHT22;4587;51.434;6.788;2023-07-13T09:35:58;23.80;99.90
9103;DHT22;4587;51.434;6.788;2023-07-13T09:38:26;24.00;99.90
9103;DHT22;4587;51.434;6.788;2023-07-13T09:41:11;23.30;99.90
9103;DHT22;4587;51.434;6.788;2023-07-13T09:46:34;24.10;99.90
9103;DHT22;4587;51.434;6.788;2023-07-13T09:48:59;24.00;99.90
9103;DHT22;4587;51.434;6.788;2023-07-13T09:51:25;23.80;99.90
9103;DHT22;4587;51.434;6.788;2023-07-13T09:53:50;23.60;99.90
9103;DHT22;4587;51.434;6.788;2023-07-13T09:58:46;21.90;99.90
9103;DHT22;4587;51.434;6.788;2023-07-13T10:01:11;23.00;99.90
9103;DHT22;4587;51.434;6.788;2023-07-13T10:03:37;22.80;99.90
9103;DHT22;4587;51.434;6.788;2023-07-13T10:06:15;24.10;99.90
9103;DHT22;4587;51.434;6.788;2023-07-13T10:08:41;23.00;99.90
9103;DHT22;4587;51.434;6.788;2023-07-13T10:11:14;23.40;99.90
9103;DHT22;4587;51.434;6.788;2023-07-13T10:13:45;23.70;99.90
9103;DHT22;4587;51.434;6.788;2023-07-13T10:16:11;23.90;99.90
9103;DHT22;4587;51.434;6.788;2023-07-13T10:18:48;24.00;99.90
9103;DHT22;4587;51.434;6.788;2023-07-13T10:21:19;25.40;99.90
9103;DHT22;4587;51.434;6.788;2023-07-13T10:23:53;24.00;99.90
9103;DHT22;4587;51.434;6.788;2023-07-13T10:26:27;23.90;99.90
9103;DHT22;4587;51.434;6.788;2023-07-13T10:28:59;24.10;99.90
9103;DHT22;4587;51.434;6.788;2023-07-13T10:31:26;23.90;99.90
9103;DHT22;4587;51.434;6.788;2023-07-13T10:33:52;24.00;99.90
9103;DHT22;4587;51.434;6.788;2023-07-13T10:38:57;24.40;99.90
9103;DHT22;4587;51.434;6.788;2023-07-13T10:41:25;24.40;99.90
9103;DHT22;4587;51.434;6.788;2023-07-13T10:43:54;24.50;99.90
9103;DHT22;4587;51.434;6.788;2023-07-13T10:46:23;24.70;99.90
9103;DHT22;4587;51.434;6.788;2023-07-13T10:48:53;24.60;99.90
9103;DHT22;4587;51.434;6.788;2023-07-13T10:51:20;24.70;99.90
9103;DHT22;4587;51.434;6.788;2023-07-13T10:53:47;24.60;99.90
9103;DHT22;4587;51.434;6.788;2023-07-13T10:56:29;24.40;99.90
9103;DHT22;4587;51.434;6.788;2023-07-13T10:59:09;24.30;99.90
9103;DHT22;4587;51.434;6.788;2023-07-13T11:04:27;24.00;99.90
9103;DHT22;4587;51.434;6.788;2023-07-13T11:06:58;23.70;99.90
9103;DHT22;4587;51.434;6.788;2023-07-13T11:09:39;23.90;99.90
9103;DHT22;4587;51.434;6.788;2023-07-13T11:12:48;20.80;99.90
9103;DHT22;4587;51.434;6.788;2023-07-13T11:15:14;24.00;99.90
9103;DHT22;4587;51.434;6.788;2023-07-13T11:17:54;24.10;99.90
9103;DHT22;4587;51.434;6.788;2023-07-13T11:20:37;24.30;99.90
9103;DHT22;4587;51.434;6.788;2023-07-13T11:25:39;24.60;99.90
9103;DHT22;4587;51.434;6.788;2023-07-13T11:30:40;24.70;99.90
9103;DHT22;4587;51.434;6.788;2023-07-13T11:33:17;24.90;99.90
9103;DHT22;4587;51.434;6.788;2023-07-13T11:38:34;24.70;99.90
9103;DHT22;4587;51.434;6.788;2023-07-13T11:41:18;24.90;99.90
9103;DHT22;4587;51.434;6.788;2023-07-13T11:43:45;25.30;99.90
9103;DHT22;4587;51.434;6.788;2023-07-13T11:46:19;25.00;99.90
9103;DHT22;4587;51.434;6.788;2023-07-13T11:48:46;25.10;99.90
9103;DHT22;4587;51.434;6.788;2023-07-13T11:51:20;24.90;99.90
9103;DHT22;4587;51.434;6.788;2023-07-13T11:53:50;24.70;99.90
9103;DHT22;4587;51.434;6.788;2023-07-13T11:56:16;24.70;99.90
9103;DHT22;4587;51.434;6.788;2023-07-13T11:58:42;24.90;99.90
9103;DHT22;4587;51.434;6.788;2023-07-13T12:01:21;24.90;99.90
9103;DHT22;4587;51.434;6.788;2023-07-13T12:03:48;24.80;99.90
9103;DHT22;4587;51.434;6.788;2023-07-13T12:06:40;24.90;99.90
9103;DHT22;4587;51.434;6.788;2023-07-13T12:09:13;25.10;99.90
9103;DHT22;4587;51.434;6.788;2023-07-13T12:11:41;25.20;99.90
9103;DHT22;4587;51.434;6.788;2023-07-13T12:14:18;25.20;99.90
9103;DHT22;4587;51.434;6.788;2023-07-13T12:16:46;25.40;99.90
9103;DHT22;4587;51.434;6.788;2023-07-13T12:19:22;25.40;99.90
9103;DHT22;4587;51.434;6.788;2023-07-13T12:21:49;25.40;99.90
9103;DHT22;4587;51.434;6.788;2023-07-13T12:24:17;25.60;99.90
9103;DHT22;4587;51.434;6.788;2023-07-13T12:26:43;25.60;99.90
9103;DHT22;4587;51.434;6.788;2023-07-13T12:29:15;25.40;99.90
9103;DHT22;4587;51.434;6.788;2023-07-13T12:31:43;25.20;99.90
9103;DHT22;4587;51.434;6.788;2023-07-13T12:34:18;25.00;99.90
9103;DHT22;4587;51.434;6.788;2023-07-13T12:36:59;24.80;99.90
9103;DHT22;4587;51.434;6.788;2023-07-13T12:39:37;24.60;99.90
9103;DHT22;4587;51.434;6.788;2023-07-13T12:42:27;24.40;99.90
9103;DHT22;4587;51.434;6.788;2023-07-13T12:44:57;24.20;99.90
9103;DHT22;4587;51.434;6.788;2023-07-13T12:47:24;24.00;99.90
9103;DHT22;4587;51.434;6.788;2023-07-13T12:49:54;23.80;99.90
9103;DHT22;4587;51.434;6.788;2023-07-13T12:52:29;23.60;99.90
9103;DHT22;4587;51.434;6.788;2023-07-13T12:55:14;23.50;99.90
9103;DHT22;4587;51.434;6.788;2023-07-13T13:03:02;23.30;99.90
9103;DHT22;4587;51.434;6.788;2023-07-13T13:05:29;23.10;99.90
9103;DHT22;4587;51.434;6.788;2023-07-13T13:07:55;23.10;99.90
9103;DHT22;4587;51.434;6.788;2023-07-13T13:10:21;23.10;99.90
9103;DHT22;4587;51.434;6.788;2023-07-13T13:12:47;23.00;99.90
9103;DHT22;4587;51.434;6.788;2023-07-13T13:15:13;23.10;99.90
9103;DHT22;4587;51.434;6.788;2023-07-13T13:17:39;23.20;99.90
9103;DHT22;4587;51.434;6.788;2023-07-13T13:20:16;23.30;99.90
9103;DHT22;4587;51.434;6.788;2023-07-13T13:22:42;23.60;99.90
9103;DHT22;4587;51.434;6.788;2023-07-13T13:25:11;23.90;99.90
9103;DHT22;4587;51.434;6.788;2023-07-13T13:27:37;24.30;99.90
9103;DHT22;4587;51.434;6.788;2023-07-13T13:30:03;24.70;99.90
9103;DHT22;4587;51.434;6.788;2023-07-13T13:32:30;24.90;99.90
9103;DHT22;4587;51.434;6.788;2023-07-13T13:34:56;25.10;99.90
9103;DHT22;4587;51.434;6.788;2023-07-13T13:37:23;25.30;99.90
9103;DHT22;4587;51.434;6.788;2023-07-13T13:39:50;25.40;99.90
9103;DHT22;4587;51.434;6.788;2023-07-13T13:42:17;25.50;99.90
9103;DHT22;4587;51.434;6.788;2023-07-13T13:44:43;25.40;99.90
9103;DHT22;4587;51.434;6.788;2023-07-13T13:47:25;25.20;99.90
9103;DHT22;4587;51.434;6.788;2023-07-13T13:49:52;24.90;99.90
9103;DHT22;4587;51.434;6.788;2023-07-13T13:52:17;24.80;99.90
9103;DHT22;4587;51.434;6.788;2023-07-13T13:54:43;24.70;99.90
9103;DHT22;4587;51.434;6.788;2023-07-13T13:57:10;24.80;99.90
9103;DHT22;4587;51.434;6.788;2023-07-13T13:59:38;24.90;99.90
9103;DHT22;4587;51.434;6.788;2023-07-13T14:02:28;24.90;99.90
9103;DHT22;4587;51.434;6.788;2023-07-13T14:05:01;24.80;99.90
9103;DHT22;4587;51.434;6.788;2023-07-13T14:07:27;24.70;99.90
9103;DHT22;4587;51.434;6.788;2023-07-13T14:09:57;24.50;99.90
9103;DHT22;4587;51.434;6.788;2023-07-13T14:12:23;24.10;99.90
9103;DHT22;4587;51.434;6.788;2023-07-13T14:14:51;23.90;99.90
9103;DHT22;4587;51.434;6.788;2023-07-13T14:17:25;23.70;99.90
9103;DHT22;4587;51.434;6.788;2023-07-13T14:19:52;23.40;99.90
9103;DHT22;4587;51.434;6.788;2023-07-13T14:22:23;23.20;99.90
9103;DHT22;4587;51.434;6.788;2023-07-13T14:24:50;22.90;99.90
9103;DHT22;4587;51.434;6.788;2023-07-13T14:27:16;22.90;99.90
9103;DHT22;4587;51.434;6.788;2023-07-13T14:29:42;22.80;99.90
9103;DHT22;4587;51.434;6.788;2023-07-13T14:32:11;22.90;99.90
9103;DHT22;4587;51.434;6.788;2023-07-13T14:34:37;22.80;99.90
9103;DHT22;4587;51.434;6.788;2023-07-13T14:37:03;22.80;99.90
9103;DHT22;4587;51.434;6.788;2023-07-13T14:39:30;22.90;99.90
9103;DHT22;4587;51.434;6.788;2023-07-13T14:41:56;23.00;99.90
9103;DHT22;4587;51.434;6.788;2023-07-13T14:44:27;23.10;99.90
9103;DHT22;4587;51.434;6.788;2023-07-13T14:46:55;23.20;99.90
9103;DHT22;4587;51.434;6.788;2023-07-13T14:51:51;23.30;99.90
9103;DHT22;4587;51.434;6.788;2023-07-13T14:54:17;23.40;99.90
9103;DHT22;4587;51.434;6.788;2023-07-13T14:56:43;23.40;99.90
9103;DHT22;4587;51.434;6.788;2023-07-13T14:59:08;23.40;99.90
9103;DHT22;4587;51.434;6.788;2023-07-13T15:01:36;23.30;99.90
9103;DHT22;4587;51.434;6.788;2023-07-13T15:04:02;23.20;99.90
9103;DHT22;4587;51.434;6.788;2023-07-13T15:06:29;23.10;99.90
9103;DHT22;4587;51.434;6.788;2023-07-13T15:08:57;23.00;99.90
9103;DHT22;4587;51.434;6.788;2023-07-13T15:11:22;22.90;99.90
9103;DHT22;4587;51.434;6.788;2023-07-13T15:13:48;22.80;99.90
9103;DHT22;4587;51.434;6.788;2023-07-13T15:16:16;22.70;99.90
9103;DHT22;4587;51.434;6.788;2023-07-13T15:18:44;22.70;99.90
9103;DHT22;4587;51.434;6.788;2023-07-13T15:21:13;22.50;99.90
9103;DHT22;4587;51.434;6.788;2023-07-13T15:23:40;22.40;99.90
9103;DHT22;4587;51.434;6.788;2023-07-13T15:26:11;22.20;99.90
9103;DHT22;4587;51.434;6.788;2023-07-13T15:28:37;21.90;99.90
9103;DHT22;4587;51.434;6.788;2023-07-13T15:31:21;21.70;99.90
9103;DHT22;4587;51.434;6.788;2023-07-13T15:33:47;21.60;99.90
9103;DHT22;4587;51.434;6.788;2023-07-13T15:36:15;21.60;99.90
9103;DHT22;4587;51.434;6.788;2023-07-13T15:38:42;21.20;99.90
9103;DHT22;4587;51.434;6.788;2023-07-13T15:41:21;21.50;99.90
9103;DHT22;4587;51.434;6.788;2023-07-13T15:43:49;21.50;99.90
9103;DHT22;4587;51.434;6.788;2023-07-13T15:46:20;21.50;99.90
9103;DHT22;4587;51.434;6.788;2023-07-13T15:48:48;21.40;99.90
9103;DHT22;4587;51.434;6.788;2023-07-13T15:51:26;21.50;99.90
9103;DHT22;4587;51.434;6.788;2023-07-13T15:53:54;21.40;99.90
9103;DHT22;4587;51.434;6.788;2023-07-13T15:56:28;21.40;99.90
9103;DHT22;4587;51.434;6.788;2023-07-13T15:58:55;21.50;99.90
9103;DHT22;4587;51.434;6.788;2023-07-13T16:01:22;21.60;99.90
9103;DHT22;4587;51.434;6.788;2023-07-13T16:03:49;21.60;99.90
9103;DHT22;4587;51.434;6.788;2023-07-13T16:08:42;21.60;99.90
9103;DHT22;4587;51.434;6.788;2023-07-13T16:11:16;21.60;99.90
9103;DHT22;4587;51.434;6.788;2023-07-13T16:13:43;21.70;99.90
9103;DHT22;4587;51.434;6.788;2023-07-13T16:16:11;21.80;99.90
9103;DHT22;4587;51.434;6.788;2023-07-13T16:18:37;21.70;99.90
9103;DHT22;4587;51.434;6.788;2023-07-13T16:21:09;21.70;99.90
9103;DHT22;4587;51.434;6.788;2023-07-13T16:23:36;22.10;99.90
9103;DHT22;4587;51.434;6.788;2023-07-13T16:26:03;21.80;99.90
9103;DHT22;4587;51.434;6.788;2023-07-13T16:28:30;21.80;99.90
9103;DHT22;4587;51.434;6.788;2023-07-13T16:30:56;21.90;99.90
9103;DHT22;4587;51.434;6.788;2023-07-13T16:33:21;22.00;99.90
9103;DHT22;4587;51.434;6.788;2023-07-13T16:35:47;21.90;99.90
9103;DHT22;4587;51.434;6.788;2023-07-13T16:38:18;21.80;99.90
9103;DHT22;4587;51.434;6.788;2023-07-13T16:40:44;21.70;99.90
9103;DHT22;4587;51.434;6.788;2023-07-13T16:43:15;21.70;99.90
9103;DHT22;4587;51.434;6.788;2023-07-13T16:45:42;21.70;99.90
9103;DHT22;4587;51.434;6.788;2023-07-13T16:48:15;21.60;99.90
9103;DHT22;4587;51.434;6.788;2023-07-13T16:50:43;21.70;99.90
9103;DHT22;4587;51.434;6.788;2023-07-13T16:53:20;21.60;99.90
9103;DHT22;4587;51.434;6.788;2023-07-13T16:55:47;21.60;99.90
9103;DHT22;4587;51.434;6.788;2023-07-13T16:58:13;21.60;99.90
9103;DHT22;4587;51.434;6.788;2023-07-13T17:00:38;21.60;99.90
9103;DHT22;4587;51.434;6.788;2023-07-13T17:03:05;21.50;99.90
9103;DHT22;4587;51.434;6.788;2023-07-13T17:05:39;21.50;99.90